Time;durP1;ratioP1;P1;durP2;ratioP2;P2;SDS_P1;SDS_P2;PMS_P1;PMS_P2;Temp;Humidity;BMP_temperature;BMP_pressure;BME280_temperature;BME280_humidity;BME280_pressure;Samples;Min_cycle;Max_cycle;Signal;HPM_P1;HPM_P2
2023/08/08 00:00:05;;;;;;;2.70;1.50;;;;;;;15.29;100.00;94461.09;4974104;28;20933;-78
2023/08/08 00:02:32;;;;;;;0.98;0.65;;;;;;;15.29;100.00;94464.63;4976672;28;20226;-79
2023/08/08 00:04:58;;;;;;;0.85;0.80;;;;;;;15.23;100.00;94468.00;4981667;28;20244;-78
2023/08/08 00:07:25;;;;;;;1.08;0.70;;;;;;;15.21;99.47;94470.28;4983334;28;20621;-78
2023/08/08 00:09:53;;;;;;;1.42;0.95;;;;;;;15.27;99.11;94468.84;4978584;28;20264;-78
2023/08/08 00:12:20;;;;;;;1.63;1.00;;;;;;;15.26;98.33;94467.28;4978476;28;20222;-79
2023/08/08 00:14:47;;;;;;;1.42;1.20;;;;;;;15.19;98.45;94461.66;4972560;28;20273;-78
2023/08/08 00:17:13;;;;;;;2.50;1.10;;;;;;;15.14;97.57;94464.72;4972072;28;20242;-78
2023/08/08 00:19:40;;;;;;;2.55;1.70;;;;;;;15.12;95.38;94461.53;4976256;28;20831;-77
2023/08/08 00:22:07;;;;;;;0.68;0.60;;;;;;;15.07;94.75;94465.34;4974146;28;20617;-79
2023/08/08 00:24:34;;;;;;;1.10;0.88;;;;;;;15.09;94.36;94467.72;4985148;28;20210;-77
2023/08/08 00:27:03;;;;;;;3.85;0.88;;;;;;;15.10;94.50;94470.09;4978105;28;20207;-77
2023/08/08 00:29:29;;;;;;;1.20;1.00;;;;;;;15.11;94.64;94470.88;4973091;28;20206;-78
2023/08/08 00:31:56;;;;;;;2.92;2.05;;;;;;;15.11;93.88;94482.59;4986767;28;20292;-78
2023/08/08 00:34:23;;;;;;;0.88;0.70;;;;;;;15.11;94.25;94482.59;4975993;28;20704;-77
2023/08/08 00:36:50;;;;;;;0.73;0.70;;;;;;;15.13;94.00;94479.50;4975823;28;20236;-78
2023/08/08 00:39:16;;;;;;;0.73;0.70;;;;;;;15.14;92.79;94486.53;4971517;28;20646;-79
2023/08/08 00:41:43;;;;;;;1.42;1.05;;;;;;;15.12;93.02;94486.09;4981526;28;20249;-79
2023/08/08 00:44:11;;;;;;;1.63;1.40;;;;;;;15.15;93.32;94483.44;4971130;28;20214;-80
2023/08/08 00:46:38;;;;;;;1.50;1.30;;;;;;;15.08;92.78;94482.50;4972000;28;20254;-80
2023/08/08 00:49:05;;;;;;;1.23;1.10;;;;;;;15.10;91.60;94488.41;4970917;28;20305;-80
2023/08/08 00:51:32;;;;;;;1.30;1.20;;;;;;;15.11;91.35;94484.53;4979041;28;20206;-80
2023/08/08 00:54:00;;;;;;;1.80;1.35;;;;;;;15.15;90.98;94488.13;4977981;28;20210;-79
2023/08/08 00:56:27;;;;;;;1.40;1.30;;;;;;;15.18;89.83;94487.38;4973337;28;20210;-78
2023/08/08 00:58:54;;;;;;;2.05;1.27;;;;;;;15.15;90.53;94488.13;4980365;28;20723;-76
2023/08/08 01:01:22;;;;;;;1.63;1.25;;;;;;;15.19;90.09;94486.22;4972968;28;20199;-79
2023/08/08 01:03:50;;;;;;;2.47;1.30;;;;;;;15.18;89.60;94487.38;4973764;28;20254;-78
2023/08/08 01:06:23;;;;;;;1.58;1.48;;;;;;;15.21;90.07;94483.94;4987277;28;20510;-78
2023/08/08 01:09:01;;;;;;;1.85;1.42;;;;;;;15.18;90.36;94492.84;4975292;28;20604;-77
2023/08/08 01:11:32;;;;;;;1.85;0.82;;;;;;;15.18;90.09;94487.38;4974017;28;20681;-79
2023/08/08 01:14:00;;;;;;;0.70;0.60;;;;;;;15.19;89.52;94488.97;4985532;28;20657;-76
2023/08/08 01:16:29;;;;;;;1.50;0.93;;;;;;;15.14;90.16;94492.00;4983925;28;20217;-78
2023/08/08 01:18:57;;;;;;;1.10;0.90;;;;;;;15.04;90.96;94485.16;4976141;28;20198;-79
2023/08/08 01:21:25;;;;;;;0.70;0.70;;;;;;;15.07;91.22;94500.03;4971926;28;20289;-78
2023/08/08 01:23:57;;;;;;;1.25;1.15;;;;;;;15.07;90.77;94509.00;4981968;28;20209;-79
2023/08/08 01:26:26;;;;;;;0.90;0.77;;;;;;;15.05;90.95;94499.59;4978100;28;20264;-80
2023/08/08 01:28:54;;;;;;;0.93;0.85;;;;;;;15.08;90.16;94504.34;4972977;28;20252;-79
2023/08/08 01:31:21;;;;;;;1.30;0.73;;;;;;;14.89;90.38;94488.75;4982309;28;20197;-81
2023/08/08 01:33:47;;;;;;;1.17;1.05;;;;;;;15.01;91.22;94510.44;4979717;28;20206;-80
2023/08/08 01:36:21;;;;;;;0.82;0.82;;;;;;;14.93;90.44;94497.78;4973854;28;20561;-80
2023/08/08 01:38:52;;;;;;;1.52;0.85;;;;;;;14.92;91.11;94507.91;4978791;28;20202;-80
2023/08/08 01:41:20;;;;;;;1.05;0.85;;;;;;;14.87;90.90;94527.31;4984771;28;20277;-79
2023/08/08 01:43:48;;;;;;;2.58;1.17;;;;;;;14.84;90.83;94527.22;4977177;28;20678;-78
2023/08/08 01:46:16;;;;;;;1.23;0.85;;;;;;;14.77;91.36;94533.28;4955601;28;20211;-78
2023/08/08 01:48:46;;;;;;;3.58;0.90;;;;;;;14.79;91.47;94547.38;4975502;28;20233;-79
2023/08/08 01:51:12;;;;;;;1.42;1.33;;;;;;;14.76;91.55;94537.16;4977922;28;20206;-80
2023/08/08 01:53:39;;;;;;;1.58;1.30;;;;;;;14.70;91.83;94552.22;4975261;28;20198;-79
2023/08/08 01:56:06;;;;;;;1.40;1.30;;;;;;;14.71;92.52;94550.31;4973821;28;20210;-81
2023/08/08 01:58:33;;;;;;;1.38;1.27;;;;;;;14.72;92.46;94563.59;4976642;28;20205;-80
2023/08/08 02:01:01;;;;;;;3.35;1.02;;;;;;;14.70;92.77;94573.25;4978281;28;20277;-78
2023/08/08 02:03:28;;;;;;;1.25;0.90;;;;;;;14.69;92.73;94569.75;4973027;28;20214;-78
2023/08/08 02:05:55;;;;;;;2.05;1.00;;;;;;;14.66;92.39;94567.72;4983620;28;20788;-79
2023/08/08 02:08:21;;;;;;;3.08;0.80;;;;;;;14.68;92.56;94562.69;4982632;28;20229;-80
2023/08/08 02:10:48;;;;;;;0.85;0.80;;;;;;;14.69;92.60;94560.75;4974626;28;20238;-81
2023/08/08 02:13:15;;;;;;;4.00;1.10;;;;;;;14.71;92.18;94566.66;4982591;28;20261;-80
2023/08/08 02:15:41;;;;;;;2.63;1.30;;;;;;;14.70;92.87;94565.88;4971253;28;20202;-79
2023/08/08 02:18:10;;;;;;;1.08;0.95;;;;;;;14.75;92.42;94568.34;4976811;28;20995;-80
2023/08/08 02:20:37;;;;;;;1.70;1.00;;;;;;;14.73;92.54;94570.63;4971352;28;20242;-80
2023/08/08 02:23:04;;;;;;;1.75;1.50;;;;;;;14.77;91.98;94582.38;4981022;28;20653;-79
2023/08/08 02:25:31;;;;;;;1.00;0.90;;;;;;;14.79;91.82;94588.28;4970925;28;20246;-80
2023/08/08 02:27:58;;;;;;;1.00;0.93;;;;;;;14.81;91.69;94590.66;4969740;28;20229;-80
2023/08/08 02:30:25;;;;;;;0.47;0.47;;;;;;;14.81;91.96;94604.28;4974649;28;20872;-80
2023/08/08 02:32:52;;;;;;;3.47;1.20;;;;;;;14.80;92.06;94597.25;4984686;28;20201;-80
2023/08/08 02:35:20;;;;;;;1.00;0.80;;;;;;;14.70;92.15;94582.22;4957532;28;20202;-79
2023/08/08 02:37:46;;;;;;;1.63;1.23;;;;;;;14.79;92.40;94593.72;4972709;28;20301;-79
2023/08/08 02:40:13;;;;;;;1.25;1.10;;;;;;;14.65;92.95;94596.13;4982577;28;20225;-79
2023/08/08 02:42:40;;;;;;;1.02;0.93;;;;;;;14.70;93.48;94586.88;4977406;28;20252;-78
2023/08/08 02:45:08;;;;;;;1.05;0.95;;;;;;;14.62;93.26;94596.06;4974278;28;20213;-79
2023/08/08 02:47:35;;;;;;;1.45;1.10;;;;;;;14.71;93.32;94610.28;4973830;28;20214;-78
2023/08/08 02:50:01;;;;;;;0.90;0.82;;;;;;;14.77;92.65;94609.66;4986195;28;20206;-82
2023/08/08 02:52:29;;;;;;;2.47;1.35;;;;;;;14.75;92.93;94611.97;4983974;28;20579;-78
2023/08/08 02:54:56;;;;;;;1.35;1.25;;;;;;;14.78;91.96;94608.50;4975491;28;20636;-80
2023/08/08 02:57:23;;;;;;;0.80;0.80;;;;;;;14.72;91.88;94609.94;4975311;28;20689;-79
2023/08/08 02:59:50;;;;;;;1.40;1.00;;;;;;;14.64;91.94;94626.47;4982482;28;20249;-79
2023/08/08 03:02:16;;;;;;;1.73;1.23;;;;;;;14.73;91.84;94618.91;4981626;28;20212;-80
2023/08/08 03:04:43;;;;;;;5.60;1.38;;;;;;;14.65;91.53;94611.69;4981121;28;20329;-79
2023/08/08 03:07:10;;;;;;;1.40;1.30;;;;;;;14.71;91.43;94616.53;4987698;28;20205;-80
2023/08/08 03:09:38;;;;;;;0.73;0.73;;;;;;;14.70;91.64;94614.16;4973762;28;20647;-79
2023/08/08 03:12:06;;;;;;;1.50;1.40;;;;;;;14.73;91.87;94614.25;4978078;28;20226;-79
2023/08/08 03:14:33;;;;;;;1.60;1.45;;;;;;;14.74;91.48;94615.84;4989894;28;20209;-79
2023/08/08 03:17:00;;;;;;;1.92;1.42;;;;;;;14.73;91.48;94616.97;4984160;28;20240;-80
2023/08/08 03:19:27;;;;;;;1.67;1.58;;;;;;;14.78;91.14;94622.13;4977586;28;20645;-79
2023/08/08 03:21:54;;;;;;;3.83;1.35;;;;;;;14.71;91.32;94619.25;4974520;28;20210;-80
2023/08/08 03:24:20;;;;;;;2.15;1.40;;;;;;;14.67;91.98;94621.09;4988081;28;20202;-79
2023/08/08 03:26:48;;;;;;;2.33;1.40;;;;;;;14.60;92.35;94631.84;4981074;28;20322;-79
2023/08/08 03:29:15;;;;;;;1.10;1.00;;;;;;;14.60;92.54;94637.31;4975002;28;20289;-79
2023/08/08 03:31:42;;;;;;;1.23;0.77;;;;;;;14.62;92.68;94623.31;4985257;28;20203;-77
2023/08/08 03:34:09;;;;;;;1.17;0.90;;;;;;;14.62;92.53;94624.13;4975478;28;20280;-80
2023/08/08 03:36:35;;;;;;;1.52;1.20;;;;;;;14.62;92.31;94626.84;4979101;28;20281;-80
2023/08/08 03:39:03;;;;;;;2.42;1.60;;;;;;;14.65;92.44;94633.50;4973050;28;20199;-80
2023/08/08 03:41:30;;;;;;;1.77;1.27;;;;;;;14.70;92.02;94635.97;4982662;28;20202;-79
2023/08/08 03:43:58;;;;;;;1.60;1.50;;;;;;;14.71;92.30;94638.34;4981259;28;20241;-79
2023/08/08 03:46:25;;;;;;;1.95;1.63;;;;;;;14.62;92.69;94639.69;4976396;28;20194;-80
2023/08/08 03:48:52;;;;;;;2.25;1.60;;;;;;;14.72;92.41;94639.94;4981347;28;20229;-79
2023/08/08 03:51:18;;;;;;;1.52;1.35;;;;;;;14.77;92.28;94634.19;4982595;28;20286;-79
2023/08/08 03:53:45;;;;;;;3.10;1.77;;;;;;;14.77;92.04;94626.00;4977150;28;20237;-78
2023/08/08 03:56:12;;;;;;;2.08;1.60;;;;;;;14.79;91.84;94618.28;4975762;28;20280;-80
2023/08/08 03:58:39;;;;;;;2.60;2.08;;;;;;;14.76;91.11;94624.44;4979489;28;20213;-77
2023/08/08 04:01:07;;;;;;;2.92;1.83;;;;;;;14.89;91.03;94623.19;4980248;28;20241;-79
2023/08/08 04:03:34;;;;;;;2.90;1.63;;;;;;;14.98;89.39;94627.66;4975542;28;20202;-79
2023/08/08 04:06:01;;;;;;;3.35;2.15;;;;;;;15.01;89.54;94635.16;4972584;28;20712;-79
2023/08/08 04:08:27;;;;;;;2.13;1.88;;;;;;;14.92;89.29;94638.84;4972694;28;20716;-77
2023/08/08 04:10:54;;;;;;;1.80;1.52;;;;;;;14.91;89.89;94642.72;4975284;28;20228;-79
2023/08/08 04:13:21;;;;;;;2.22;2.03;;;;;;;14.90;89.58;94660.22;4984872;28;20296;-78
2023/08/08 04:15:48;;;;;;;1.95;1.63;;;;;;;14.97;89.21;94656.09;4981566;28;20270;-77
2023/08/08 04:18:16;;;;;;;2.42;2.20;;;;;;;14.98;88.66;94658.47;4969060;28;20226;-76
2023/08/08 04:20:43;;;;;;;2.17;1.80;;;;;;;15.01;88.78;94662.44;4959601;28;20213;-76
2023/08/08 04:23:09;;;;;;;2.15;1.88;;;;;;;15.03;88.88;94663.66;4982494;28;20739;-77
2023/08/08 04:25:36;;;;;;;2.05;1.20;;;;;;;15.05;88.83;94680.44;4979896;28;20214;-77
2023/08/08 04:28:03;;;;;;;2.55;2.10;;;;;;;15.05;89.22;94674.97;4978121;28;20261;-79
2023/08/08 04:30:30;;;;;;;2.70;1.88;;;;;;;15.00;89.15;94671.75;4977924;28;20229;-78
2023/08/08 04:32:57;;;;;;;1.75;1.38;;;;;;;15.03;88.81;94676.50;4986518;28;20213;-77
2023/08/08 04:35:25;;;;;;;1.70;1.60;;;;;;;15.03;88.48;94681.97;4977842;28;20198;-77
2023/08/08 04:37:52;;;;;;;1.90;1.70;;;;;;;15.18;88.31;94684.63;4974776;28;20677;-79
2023/08/08 04:40:18;;;;;;;1.92;1.73;;;;;;;15.39;87.82;94678.88;4987667;28;20209;-77
2023/08/08 04:42:45;;;;;;;2.63;1.83;;;;;;;15.48;86.77;94684.94;4983202;28;20308;-76
2023/08/08 04:45:12;;;;;;;6.10;1.80;;;;;;;15.60;86.06;94679.38;4975304;28;20893;-78
2023/08/08 04:47:39;;;;;;;2.53;1.85;;;;;;;15.68;84.84;94671.34;4972148;28;20593;-77
2023/08/08 04:50:07;;;;;;;2.33;2.00;;;;;;;15.99;84.31;94663.75;4984097;28;20234;-77
2023/08/08 04:52:35;;;;;;;2.20;2.00;;;;;;;16.39;82.64;94659.06;4982207;28;20237;-79
2023/08/08 04:55:02;;;;;;;2.53;1.90;;;;;;;17.02;79.69;94660.16;4980704;28;20207;-78
2023/08/08 04:57:29;;;;;;;2.10;1.80;;;;;;;16.73;78.90;94662.78;4972733;28;20206;-78
2023/08/08 04:59:55;;;;;;;2.05;1.90;;;;;;;16.54;80.17;94675.31;4980520;28;20194;-78
2023/08/08 05:02:22;;;;;;;2.33;1.90;;;;;;;16.10;82.08;94691.31;4975210;28;20214;-78
2023/08/08 05:04:49;;;;;;;2.00;1.75;;;;;;;16.06;82.09;94685.00;4971062;28;20669;-77
2023/08/08 05:07:16;;;;;;;1.70;1.60;;;;;;;16.23;82.30;94706.41;4980141;28;20198;-77
2023/08/08 05:09:44;;;;;;;3.15;1.95;;;;;;;16.84;79.66;94708.31;4971712;28;20296;-77
2023/08/08 05:12:11;;;;;;;0.93;0.90;;;;;;;17.16;77.39;94705.31;4976735;28;20324;-78
2023/08/08 05:14:38;;;;;;;1.63;1.52;;;;;;;18.04;75.10;94714.81;4987602;28;20623;-78
2023/08/08 05:17:05;;;;;;;2.33;1.77;;;;;;;17.97;74.18;94725.69;4980595;28;20242;-77
2023/08/08 05:19:32;;;;;;;2.63;1.83;;;;;;;18.31;72.79;94726.50;4975262;28;20260;-77
2023/08/08 05:21:58;;;;;;;1.30;1.17;;;;;;;18.72;70.85;94729.34;4973050;28;20299;-78
2023/08/08 05:24:25;;;;;;;1.70;1.60;;;;;;;18.36;71.38;94737.16;4985314;28;20198;-77
2023/08/08 05:26:53;;;;;;;1.75;1.58;;;;;;;18.62;70.21;94733.53;4978716;28;20206;-78
2023/08/08 05:29:20;;;;;;;2.72;1.40;;;;;;;17.87;73.09;94728.31;4972985;28;20316;-78
2023/08/08 05:31:47;;;;;;;1.92;1.58;;;;;;;17.64;73.64;94731.91;4970701;28;20657;-77
2023/08/08 05:34:14;;;;;;;1.92;1.05;;;;;;;17.43;74.22;94737.03;4965691;28;20751;-78
2023/08/08 05:36:41;;;;;;;2.42;1.67;;;;;;;18.41;71.95;94739.56;4975511;28;20198;-76
2023/08/08 05:39:09;;;;;;;1.88;1.60;;;;;;;20.55;64.67;94737.28;4981719;28;20221;-78
2023/08/08 05:41:36;;;;;;;5.70;1.33;;;;;;;20.69;63.58;94742.06;4982467;28;20214;-76
2023/08/08 05:44:04;;;;;;;2.55;1.30;;;;;;;21.17;61.37;94744.50;4977349;28;20203;-77
2023/08/08 05:46:31;;;;;;;1.38;1.20;;;;;;;20.69;62.54;94741.25;4971776;28;20215;-79
2023/08/08 05:48:58;;;;;;;1.30;1.20;;;;;;;19.87;65.43;94755.41;4979994;28;20573;-78
2023/08/08 05:51:24;;;;;;;3.58;1.45;;;;;;;19.43;66.13;94765.66;4972113;28;20210;-77
2023/08/08 05:53:51;;;;;;;1.75;1.65;;;;;;;19.62;64.01;94751.72;4975871;28;20814;-78
2023/08/08 05:56:18;;;;;;;2.20;2.00;;;;;;;19.10;67.26;94759.13;4973984;28;20202;-77
2023/08/08 05:58:45;;;;;;;2.38;1.88;;;;;;;19.47;65.91;94766.50;4978394;28;20201;-76
2023/08/08 06:01:13;;;;;;;2.40;1.70;;;;;;;18.74;69.03;94779.94;4976806;28;20616;-78
2023/08/08 06:03:39;;;;;;;1.40;1.30;;;;;;;17.74;71.68;94794.31;4972758;28;20282;-77
2023/08/08 06:06:07;;;;;;;4.78;1.90;;;;;;;17.62;73.76;94805.44;4985033;28;20210;-78
2023/08/08 06:08:33;;;;;;;3.22;2.05;;;;;;;18.96;70.09;94791.94;4982379;28;20636;-78
2023/08/08 06:11:00;;;;;;;2.17;1.98;;;;;;;18.62;70.85;94785.69;4972476;28;20308;-78
2023/08/08 06:13:27;;;;;;;3.00;2.53;;;;;;;18.77;70.36;94786.63;4969792;28;20277;-77
2023/08/08 06:15:54;;;;;;;2.60;2.28;;;;;;;18.62;69.96;94787.63;4970418;28;20214;-79
2023/08/08 06:18:22;;;;;;;5.57;1.88;;;;;;;18.93;68.89;94787.19;4971135;28;20749;-78
2023/08/08 06:20:49;;;;;;;1.77;1.60;;;;;;;19.86;63.89;94778.59;4969978;28;20285;-78
2023/08/08 06:23:16;;;;;;;1.58;1.30;;;;;;;20.32;62.50;94775.31;4969504;28;20264;-77
2023/08/08 06:25:42;;;;;;;2.40;2.20;;;;;;;20.42;62.01;94762.81;4969930;28;20269;-77
2023/08/08 06:28:11;;;;;;;1.38;1.20;;;;;;;20.29;59.69;94761.53;4969966;28;20202;-77
2023/08/08 06:30:38;;;;;;;1.92;1.52;;;;;;;20.99;60.35;94766.53;4970295;28;20237;-78
2023/08/08 06:33:05;;;;;;;1.77;1.67;;;;;;;22.73;56.60;94758.03;4970029;28;20205;-77
2023/08/08 06:35:33;;;;;;;2.95;1.58;;;;;;;22.44;52.63;94751.84;4969778;28;20721;-78
2023/08/08 06:38:00;;;;;;;1.77;1.27;;;;;;;21.81;55.46;94756.34;4969665;28;20264;-78
2023/08/08 06:40:27;;;;;;;1.10;1.00;;;;;;;21.93;54.36;94763.41;4969752;28;20206;-78
2023/08/08 06:42:54;;;;;;;2.50;1.33;;;;;;;21.11;57.07;94757.09;4967301;28;20198;-79
2023/08/08 06:45:20;;;;;;;1.83;1.08;;;;;;;21.48;57.02;94756.75;4970000;28;20210;-77
2023/08/08 06:47:47;;;;;;;2.10;1.80;;;;;;;23.35;51.90;94747.06;4969683;28;20598;-78
2023/08/08 06:50:14;;;;;;;1.27;1.15;;;;;;;22.34;52.92;94750.72;4967228;28;20237;-77
2023/08/08 06:52:43;;;;;;;1.83;1.10;;;;;;;19.98;59.08;94773.94;4969958;28;20219;-78
2023/08/08 06:55:11;;;;;;;1.90;1.58;;;;;;;18.95;63.40;94779.38;4969650;28;20261;-76
2023/08/08 06:57:38;;;;;;;1.70;1.50;;;;;;;18.72;64.40;94781.50;4969794;28;20666;-77
2023/08/08 07:00:06;;;;;;;5.25;1.67;;;;;;;19.45;61.58;94779.81;4969634;28;20604;-77
2023/08/08 07:02:32;;;;;;;1.15;1.02;;;;;;;21.04;55.63;94774.41;4969927;28;20214;-77
2023/08/08 07:04:59;;;;;;;2.78;1.48;;;;;;;21.58;53.10;94772.50;4969676;28;20726;-78
2023/08/08 07:07:26;;;;;;;1.25;1.15;;;;;;;20.82;53.53;94772.75;4968138;28;20199;-77
2023/08/08 07:09:54;;;;;;;2.13;1.35;;;;;;;21.96;51.88;94763.41;4967188;28;20234;-77
2023/08/08 07:12:21;;;;;;;1.45;1.33;;;;;;;21.38;53.24;94776.84;4970074;28;20210;-79
2023/08/08 07:14:47;;;;;;;1.58;1.42;;;;;;;21.26;53.93;94765.03;4969601;28;20203;-77
2023/08/08 07:17:14;;;;;;;1.52;1.27;;;;;;;20.85;54.76;94777.50;4969493;28;20229;-77
2023/08/08 07:19:41;;;;;;;1.27;1.17;;;;;;;20.04;57.27;94780.66;4969770;28;20855;-77
2023/08/08 07:22:09;;;;;;;1.58;1.30;;;;;;;20.60;53.85;94766.41;4969510;28;20693;-77
2023/08/08 07:24:36;;;;;;;2.55;1.90;;;;;;;20.89;54.64;94775.56;4969862;28;20256;-78
2023/08/08 07:27:04;;;;;;;1.52;1.42;;;;;;;20.85;53.66;94769.25;4969219;28;20277;-77
2023/08/08 07:29:31;;;;;;;0.80;0.80;;;;;;;20.51;53.94;94774.22;4971047;28;20218;-77
2023/08/08 07:31:59;;;;;;;1.67;1.50;;;;;;;21.67;52.72;94767.38;4972742;28;20230;-79
2023/08/08 07:34:26;;;;;;;2.03;1.38;;;;;;;22.44;48.37;94760.13;4972900;28;20206;-80
2023/08/08 07:36:52;;;;;;;0.80;0.80;;;;;;;22.48;48.49;94768.41;4973478;28;20202;-79
2023/08/08 07:39:19;;;;;;;1.60;1.00;;;;;;;21.23;50.24;94776.81;4972916;28;20202;-76
2023/08/08 07:41:46;;;;;;;0.80;0.73;;;;;;;20.72;51.88;94770.78;4973339;28;20198;-78
2023/08/08 07:44:14;;;;;;;0.80;0.80;;;;;;;21.27;50.87;94771.31;4973112;28;20604;-77
2023/08/08 07:46:41;;;;;;;3.13;0.82;;;;;;;20.90;52.43;94772.41;4971972;28;20207;-79
2023/08/08 07:49:09;;;;;;;1.30;1.05;;;;;;;20.75;52.83;94772.75;4972880;28;20610;-78
2023/08/08 07:51:36;;;;;;;0.88;0.70;;;;;;;20.33;52.31;94768.63;4978813;28;20262;-78
2023/08/08 07:54:05;;;;;;;1.27;0.77;;;;;;;20.89;51.88;94768.09;4972757;28;20607;-77
2023/08/08 07:56:32;;;;;;;0.60;0.60;;;;;;;20.49;51.99;94774.63;4971294;28;20276;-78
2023/08/08 07:58:59;;;;;;;1.15;1.00;;;;;;;21.32;50.67;94767.41;4974702;28;20199;-78
2023/08/08 08:01:28;;;;;;;6.35;1.20;;;;;;;21.86;50.22;94774.47;4974787;28;20226;-78
2023/08/08 08:03:55;;;;;;;0.60;0.60;;;;;;;21.69;48.87;94767.78;4972389;28;20281;-78
2023/08/08 08:06:21;;;;;;;1.40;1.00;;;;;;;21.09;51.64;94771.25;4975067;28;20636;-77
2023/08/08 08:08:48;;;;;;;1.10;0.90;;;;;;;21.39;50.72;94757.16;4974971;28;20573;-77
2023/08/08 08:11:16;;;;;;;0.73;0.73;;;;;;;20.73;51.88;94767.63;4971834;28;20292;-80
2023/08/08 08:13:43;;;;;;;0.60;0.60;;;;;;;20.88;52.16;94771.22;4972916;28;20206;-78
2023/08/08 08:16:10;;;;;;;2.35;0.70;;;;;;;20.20;50.67;94764.66;4972893;28;20202;-77
2023/08/08 08:18:38;;;;;;;3.78;1.10;;;;;;;20.49;53.23;94777.41;4972544;28;20238;-78
2023/08/08 08:21:05;;;;;;;0.95;0.90;;;;;;;20.48;54.68;94775.81;4971226;28;20202;-78
2023/08/08 08:23:32;;;;;;;1.00;0.85;;;;;;;20.69;54.36;94766.03;4971598;28;20206;-77
2023/08/08 08:25:59;;;;;;;1.23;0.90;;;;;;;21.03;53.39;94761.81;4973122;28;20199;-77
2023/08/08 08:28:26;;;;;;;0.88;0.80;;;;;;;20.72;54.59;94768.03;4973935;28;20210;-78
2023/08/08 08:30:53;;;;;;;1.08;0.80;;;;;;;20.72;54.30;94768.81;4971644;28;20316;-77
2023/08/08 08:33:20;;;;;;;4.13;1.50;;;;;;;20.73;52.47;94764.09;4980615;28;20202;-77
2023/08/08 08:35:48;;;;;;;1.20;1.05;;;;;;;20.38;52.64;94776.53;4977726;28;20281;-77
2023/08/08 08:38:15;;;;;;;0.80;0.80;;;;;;;20.63;52.33;94768.41;4972363;28;20218;-79
2023/08/08 08:40:45;;;;;;;1.02;0.98;;;;;;;21.40;50.33;94760.69;4978244;28;20214;-82
2023/08/08 08:43:12;;;;;;;5.25;1.33;;;;;;;21.43;50.97;94748.88;4979601;28;20210;-76
2023/08/08 08:45:41;;;;;;;0.68;0.68;;;;;;;20.43;53.27;94751.41;4975160;28;20630;-75
2023/08/08 08:48:10;;;;;;;1.05;0.80;;;;;;;20.15;54.32;94784.25;4972171;28;20249;-78
2023/08/08 08:50:39;;;;;;;3.05;1.45;;;;;;;20.93;54.31;94773.56;4978576;28;20705;-76
2023/08/08 08:53:08;;;;;;;1.70;1.38;;;;;;;20.77;52.76;94765.69;4968972;28;20226;-77
2023/08/08 08:55:34;;;;;;;1.55;1.27;;;;;;;21.23;52.39;94765.00;4971735;28;20202;-76
2023/08/08 08:58:02;;;;;;;1.52;1.20;;;;;;;20.79;53.62;94770.78;4975213;28;20221;-78
2023/08/08 09:00:31;;;;;;;1.45;1.13;;;;;;;20.85;54.02;94775.53;4974932;28;20210;-80
2023/08/08 09:02:57;;;;;;;2.22;1.38;;;;;;;20.51;53.83;94757.72;4976473;28;20201;-79
2023/08/08 09:05:26;;;;;;;2.05;1.70;;;;;;;19.69;54.56;94784.75;4982813;28;20661;-78
2023/08/08 09:07:53;;;;;;;0.82;0.82;;;;;;;19.75;55.53;94790.69;4971531;28;20238;-77
2023/08/08 09:10:21;;;;;;;2.00;1.50;;;;;;;20.00;55.16;94771.59;4971556;28;20281;-78
2023/08/08 09:12:48;;;;;;;3.35;1.23;;;;;;;20.52;54.68;94770.31;4971655;28;20209;-78
2023/08/08 09:15:15;;;;;;;1.27;1.15;;;;;;;20.69;52.66;94757.78;4970961;28;20226;-78
2023/08/08 09:17:43;;;;;;;1.08;0.98;;;;;;;20.23;54.62;94780.34;4971171;28;20288;-79
2023/08/08 09:20:12;;;;;;;2.15;1.13;;;;;;;19.94;55.91;94779.44;4971391;28;20661;-78
2023/08/08 09:22:38;;;;;;;1.33;1.00;;;;;;;20.79;52.31;94762.53;4971767;28;20297;-78
2023/08/08 09:25:07;;;;;;;1.73;1.52;;;;;;;20.42;51.85;94776.56;4971460;28;20206;-78
2023/08/08 09:27:36;;;;;;;1.58;1.40;;;;;;;20.99;51.62;94777.53;4971568;28;20289;-78
2023/08/08 09:30:03;;;;;;;1.75;1.25;;;;;;;21.21;51.44;94779.16;4963782;28;20218;-80
2023/08/08 09:32:31;;;;;;;1.92;1.40;;;;;;;21.06;51.20;94788.56;4966966;28;20207;-77
2023/08/08 09:34:58;;;;;;;1.60;1.50;;;;;;;20.61;52.36;94789.22;4967914;28;20241;-78
2023/08/08 09:37:25;;;;;;;1.33;0.85;;;;;;;20.40;52.67;94782.44;4971524;28;20210;-80
2023/08/08 09:39:58;;;;;;;1.30;1.20;;;;;;;20.22;53.94;94785.09;4971040;28;20653;-82
2023/08/08 09:42:26;;;;;;;1.25;1.00;;;;;;;19.96;53.58;94790.03;4970920;28;20269;-79
2023/08/08 09:44:55;;;;;;;1.33;0.93;;;;;;;19.31;55.34;94802.47;4970330;28;20573;-77
2023/08/08 09:47:23;;;;;;;1.50;1.40;;;;;;;19.86;54.57;94792.34;4970469;28;20210;-78
2023/08/08 09:49:50;;;;;;;1.33;1.23;;;;;;;20.06;53.23;94808.56;4971143;28;20238;-79
2023/08/08 09:52:17;;;;;;;1.60;1.20;;;;;;;20.11;54.05;94795.22;4968660;28;20214;-79
2023/08/08 09:54:44;;;;;;;1.13;0.90;;;;;;;20.45;53.22;94793.09;4971340;28;20240;-83
2023/08/08 09:57:11;;;;;;;1.40;1.30;;;;;;;20.91;52.11;94793.25;4970616;28;20599;-80
2023/08/08 09:59:38;;;;;;;0.90;0.90;;;;;;;20.39;51.70;94780.88;4971226;28;20222;-83
2023/08/08 10:02:14;;;;;;;0.60;0.60;;;;;;;20.71;50.58;94780.22;4970829;28;20242;-79
2023/08/08 10:04:42;;;;;;;1.52;1.42;;;;;;;21.23;51.17;94776.03;4959248;28;20194;-81
2023/08/08 10:07:09;;;;;;;2.38;1.77;;;;;;;21.12;50.40;94787.00;4970938;28;20232;-80
2023/08/08 10:09:37;;;;;;;1.65;1.55;;;;;;;20.50;50.59;94784.44;4971142;28;20226;-80
2023/08/08 10:12:05;;;;;;;1.60;1.50;;;;;;;21.20;50.63;94772.09;4970407;28;20689;-80
2023/08/08 10:14:33;;;;;;;2.28;1.50;;;;;;;21.62;49.83;94781.56;4971075;28;20206;-81
2023/08/08 10:16:59;;;;;;;1.55;1.45;;;;;;;21.41;48.16;94776.84;4969787;28;20238;-79
2023/08/08 10:19:28;;;;;;;2.28;1.50;;;;;;;21.54;48.11;94780.00;4970457;28;20740;-78
2023/08/08 10:22:00;;;;;;;1.70;1.60;;;;;;;21.36;48.99;94774.47;4970435;28;21367;-79
2023/08/08 10:24:27;;;;;;;2.78;2.47;;;;;;;22.00;48.35;94779.22;4970851;28;20202;-79
2023/08/08 10:26:54;;;;;;;2.03;1.45;;;;;;;22.73;46.12;94765.53;4970584;28;20562;-79
2023/08/08 10:29:21;;;;;;;4.72;1.40;;;;;;;22.94;46.01;94759.94;4970492;28;20257;-76
2023/08/08 10:31:59;;;;;;;1.67;1.20;;;;;;;22.07;47.45;94768.16;4970081;28;20241;-80
2023/08/08 10:34:38;;;;;;;1.55;1.45;;;;;;;21.32;49.51;94772.91;4970569;28;20265;-79
2023/08/08 10:37:06;;;;;;;2.10;1.30;;;;;;;22.19;49.34;94759.44;4970279;28;20242;-77
2023/08/08 10:39:33;;;;;;;1.85;1.75;;;;;;;21.79;48.83;94763.44;4970363;28;20206;-80
2023/08/08 10:42:04;;;;;;;1.42;1.13;;;;;;;20.54;51.02;94751.44;4970370;28;20265;-79
2023/08/08 10:44:32;;;;;;;2.75;1.40;;;;;;;20.56;51.11;94755.38;4970295;28;20265;-78
2023/08/08 10:47:01;;;;;;;1.65;1.45;;;;;;;20.76;50.74;94752.31;4970237;28;20202;-80
2023/08/08 10:49:29;;;;;;;1.33;1.23;;;;;;;20.60;52.26;94744.41;4970216;28;20206;-78
2023/08/08 10:52:04;;;;;;;1.27;1.17;;;;;;;20.99;50.36;94738.97;4970278;28;20229;-79
2023/08/08 10:54:32;;;;;;;1.60;1.45;;;;;;;21.66;51.54;94748.47;4969970;28;20628;-80
2023/08/08 10:57:00;;;;;;;1.40;1.30;;;;;;;21.61;49.41;94741.38;4969917;28;20648;-78
2023/08/08 10:59:37;;;;;;;1.40;1.30;;;;;;;21.91;49.19;94760.25;4969336;28;20216;-78
2023/08/08 11:02:04;;;;;;;1.30;1.20;;;;;;;21.90;49.14;94751.19;4970280;28;20209;-80
2023/08/08 11:04:32;;;;;;;1.30;1.20;;;;;;;21.84;49.07;94752.78;4972240;28;20261;-78
2023/08/08 11:07:00;;;;;;;2.45;1.25;;;;;;;22.07;50.00;94735.81;4973680;28;20206;-79
2023/08/08 11:09:27;;;;;;;5.80;1.27;;;;;;;21.78;49.22;94739.78;4973871;28;20226;-79
2023/08/08 11:11:54;;;;;;;3.08;1.10;;;;;;;21.81;51.31;94745.31;4973723;28;20731;-79
2023/08/08 11:14:21;;;;;;;1.33;1.20;;;;;;;22.03;49.03;94742.53;4973560;28;20221;-80
2023/08/08 11:16:50;;;;;;;1.15;1.05;;;;;;;21.77;48.79;94749.25;4973883;28;20804;-80
2023/08/08 11:19:18;;;;;;;1.27;1.17;;;;;;;21.49;48.88;94750.06;4973815;28;20214;-80
2023/08/08 11:21:48;;;;;;;1.30;1.10;;;;;;;21.26;49.46;94747.69;4971640;28;20206;-79
2023/08/08 11:24:15;;;;;;;5.40;1.40;;;;;;;21.70;48.36;94741.78;4963423;28;20234;-79
2023/08/08 11:26:45;;;;;;;1.85;1.10;;;;;;;21.40;49.04;94719.34;4973605;28;20218;-77
2023/08/08 11:29:12;;;;;;;1.60;1.25;;;;;;;21.48;49.48;94720.91;4973499;28;20299;-79
2023/08/08 11:31:38;;;;;;;2.05;1.33;;;;;;;22.00;49.83;94732.31;4973497;28;20272;-79
2023/08/08 11:34:05;;;;;;;1.20;1.10;;;;;;;22.00;48.73;94735.84;4973197;28;20221;-77